Time;durP1;ratioP1;P1;durP2;ratioP2;P2;SDS_P1;SDS_P2;PMS_P1;PMS_P2;Temp;Humidity;BMP_temperature;BMP_pressure;BME280_temperature;BME280_humidity;BME280_pressure;Samples;Min_cycle;Max_cycle;Signal;HPM_P1;HPM_P2
2022/05/16 00:00:48;;;;;;;7.43;2.67;;;;;;;;;;7381273;19;20018;-75
2022/05/16 00:03:13;;;;;;;8.40;2.60;;;;;;;;;;7367502;19;20479;-74
2022/05/16 00:05:39;;;;;;;9.63;3.30;;;;;;;;;;7372267;19;20010;-75
2022/05/16 00:08:04;;;;;;;7.05;2.70;;;;;;;;;;7379849;19;20648;-76
2022/05/16 00:10:29;;;;;;;6.25;2.75;;;;;;;;;;7378618;19;19999;-76
2022/05/16 00:12:55;;;;;;;9.43;2.75;;;;;;;;;;7385769;19;20013;-75
2022/05/16 00:15:21;;;;;;;7.97;3.05;;;;;;;;;;7377233;19;20005;-75
2022/05/16 00:17:46;;;;;;;9.68;2.92;;;;;;;;;;7382135;19;20017;-76
2022/05/16 00:20:12;;;;;;;9.20;2.78;;;;;;;;;;7386099;19;20494;-75
2022/05/16 00:22:38;;;;;;;9.68;2.70;;;;;;;;;;7349700;19;20049;-76
2022/05/16 00:25:04;;;;;;;6.40;2.35;;;;;;;;;;7368855;19;20002;-75
2022/05/16 00:27:34;;;;;;;9.45;3.28;;;;;;;;;;7371255;19;20392;-76
2022/05/16 00:29:59;;;;;;;8.90;2.80;;;;;;;;;;7369989;19;20028;-75
2022/05/16 00:32:24;;;;;;;12.30;3.05;;;;;;;;;;7374684;19;20876;-75
2022/05/16 00:34:49;;;;;;;8.30;2.70;;;;;;;;;;7377519;19;20497;-74
2022/05/16 00:37:15;;;;;;;4.68;2.53;;;;;;;;;;7367349;19;20371;-76
2022/05/16 00:39:40;;;;;;;10.83;3.00;;;;;;;;;;7378637;19;20006;-74
2022/05/16 00:42:05;;;;;;;8.93;2.75;;;;;;;;;;7379300;19;20259;-76
2022/05/16 00:44:33;;;;;;;10.07;2.47;;;;;;;;;;7377971;19;20070;-76
2022/05/16 00:46:58;;;;;;;7.78;2.80;;;;;;;;;;7384021;19;20093;-76
2022/05/16 00:49:28;;;;;;;8.73;2.78;;;;;;;;;;7368345;19;20488;-76
2022/05/16 00:52:02;;;;;;;7.45;2.72;;;;;;;;;;7380955;19;20014;-76
2022/05/16 00:54:29;;;;;;;11.80;3.45;;;;;;;;;;7381503;19;19986;-76
2022/05/16 00:56:59;;;;;;;8.75;2.78;;;;;;;;;;7370330;19;20493;-76
2022/05/16 00:59:28;;;;;;;10.82;2.90;;;;;;;;;;7373953;19;20340;-74
2022/05/16 01:04:54;;;;;;;7.32;2.83;;;;;;;;;;7375997;19;20001;-74
2022/05/16 01:07:32;;;;;;;8.25;3.17;;;;;;;;;;7366115;19;20336;-75
2022/05/16 01:09:58;;;;;;;8.30;3.33;;;;;;;;;;7373141;19;19999;-73
2022/05/16 01:12:28;;;;;;;8.93;3.22;;;;;;;;;;7373397;19;20045;-75
2022/05/16 01:14:55;;;;;;;8.60;3.42;;;;;;;;;;7378576;19;20458;-73
2022/05/16 01:17:20;;;;;;;9.45;3.13;;;;;;;;;;7381810;19;20075;-74
2022/05/16 01:19:46;;;;;;;9.35;3.40;;;;;;;;;;7374856;19;20046;-74
2022/05/16 01:22:32;;;;;;;7.72;3.22;;;;;;;;;;7366618;19;20006;-74
2022/05/16 01:24:59;;;;;;;6.88;2.92;;;;;;;;;;7383808;19;20009;-74
2022/05/16 01:27:24;;;;;;;7.97;3.22;;;;;;;;;;7372963;19;20006;-74
2022/05/16 01:29:49;;;;;;;7.97;3.53;;;;;;;;;;7379112;19;20037;-74
2022/05/16 01:32:15;;;;;;;7.30;3.40;;;;;;;;;;7381156;19;20030;-74
2022/05/16 01:34:40;;;;;;;10.88;3.30;;;;;;;;;;7373251;19;20529;-73
2022/05/16 01:37:06;;;;;;;10.93;3.00;;;;;;;;;;7366769;19;20062;-74
2022/05/16 01:39:31;;;;;;;7.82;3.67;;;;;;;;;;7374235;19;20387;-73
2022/05/16 01:41:56;;;;;;;12.15;3.85;;;;;;;;;;7376970;19;20011;-74
2022/05/16 01:44:21;;;;;;;8.43;3.23;;;;;;;;;;7382300;19;20003;-74
2022/05/16 01:46:47;;;;;;;8.53;3.47;;;;;;;;;;7354764;19;20010;-73
2022/05/16 01:49:12;;;;;;;8.02;2.90;;;;;;;;;;7380686;19;20941;-74
2022/05/16 01:51:37;;;;;;;10.67;2.87;;;;;;;;;;7382559;19;20033;-73
2022/05/16 01:54:03;;;;;;;5.90;2.65;;;;;;;;;;7376980;19;20014;-74
2022/05/16 01:56:30;;;;;;;9.18;2.95;;;;;;;;;;7373147;19;20014;-74
2022/05/16 01:58:55;;;;;;;8.63;3.40;;;;;;;;;;7375944;19;20444;-74
2022/05/16 02:01:21;;;;;;;7.87;2.80;;;;;;;;;;7365692;19;20023;-73
2022/05/16 02:03:47;;;;;;;6.78;2.60;;;;;;;;;;7374863;19;20073;-75
2022/05/16 02:06:13;;;;;;;7.38;2.67;;;;;;;;;;7370519;19;20011;-73
2022/05/16 02:08:39;;;;;;;9.00;3.10;;;;;;;;;;7368361;19;20038;-74
2022/05/16 02:11:05;;;;;;;8.82;3.33;;;;;;;;;;7371570;19;20305;-73
2022/05/16 02:13:32;;;;;;;7.72;3.05;;;;;;;;;;7373015;19;20408;-74
2022/05/16 02:15:59;;;;;;;11.13;3.53;;;;;;;;;;7369487;19;20274;-74
2022/05/16 02:18:24;;;;;;;7.85;2.97;;;;;;;;;;7369272;19;20011;-74
2022/05/16 02:20:49;;;;;;;9.43;2.83;;;;;;;;;;7378023;19;20462;-74
2022/05/16 02:25:58;;;;;;;9.52;3.65;;;;;;;;;;7374702;19;20002;-74
2022/05/16 02:28:24;;;;;;;13.35;3.65;;;;;;;;;;7375681;19;20010;-74
2022/05/16 02:30:50;;;;;;;10.35;3.90;;;;;;;;;;7354182;19;20246;-74
2022/05/16 02:33:16;;;;;;;10.25;4.35;;;;;;;;;;7362253;19;20016;-73
2022/05/16 02:35:42;;;;;;;6.70;3.53;;;;;;;;;;7371337;19;20010;-74
2022/05/16 02:38:08;;;;;;;8.68;3.30;;;;;;;;;;7355689;19;20074;-73
2022/05/16 02:40:34;;;;;;;13.48;3.40;;;;;;;;;;7370368;19;20009;-73
2022/05/16 02:42:59;;;;;;;7.10;3.35;;;;;;;;;;7363535;19;20070;-74
2022/05/16 02:45:25;;;;;;;9.77;3.70;;;;;;;;;;7372501;19;20456;-74
2022/05/16 02:47:51;;;;;;;9.88;3.47;;;;;;;;;;7366716;19;20778;-72
2022/05/16 02:50:17;;;;;;;9.15;3.10;;;;;;;;;;7367641;19;20506;-74
2022/05/16 02:52:42;;;;;;;13.50;4.05;;;;;;;;;;7363662;19;20017;-74
2022/05/16 02:55:07;;;;;;;9.50;4.17;;;;;;;;;;7365274;19;19994;-74
2022/05/16 02:57:33;;;;;;;8.23;3.78;;;;;;;;;;7372312;19;20282;-73
2022/05/16 02:59:59;;;;;;;9.52;3.38;;;;;;;;;;7377567;19;20082;-74
2022/05/16 03:02:24;;;;;;;7.40;3.38;;;;;;;;;;7363250;19;20755;-74
2022/05/16 03:04:49;;;;;;;9.98;3.45;;;;;;;;;;7371887;19;20038;-74
2022/05/16 03:07:15;;;;;;;6.93;3.10;;;;;;;;;;7371142;19;20006;-74
2022/05/16 03:09:40;;;;;;;6.70;3.20;;;;;;;;;;7376544;19;20256;-74
2022/05/16 03:12:06;;;;;;;10.40;4.00;;;;;;;;;;7375930;19;20339;-74
2022/05/16 03:14:31;;;;;;;10.00;3.28;;;;;;;;;;7378788;19;20029;-73
2022/05/16 03:16:56;;;;;;;8.73;3.45;;;;;;;;;;7379138;19;20019;-73
2022/05/16 03:19:21;;;;;;;8.80;3.65;;;;;;;;;;7378206;19;20010;-74
2022/05/16 03:21:46;;;;;;;9.13;3.45;;;;;;;;;;7386887;19;20404;-73
2022/05/16 03:24:12;;;;;;;9.90;3.80;;;;;;;;;;7391122;19;20074;-74
2022/05/16 03:26:38;;;;;;;7.40;3.63;;;;;;;;;;7392096;19;20115;-74
2022/05/16 03:29:06;;;;;;;8.93;4.13;;;;;;;;;;7390069;19;20395;-74
2022/05/16 03:31:31;;;;;;;9.50;3.95;;;;;;;;;;7386264;19;20019;-73
2022/05/16 03:33:56;;;;;;;9.10;3.50;;;;;;;;;;7386161;19;20347;-74
2022/05/16 03:36:21;;;;;;;8.47;3.00;;;;;;;;;;7388922;19;20236;-74
2022/05/16 03:41:31;;;;;;;8.50;2.85;;;;;;;;;;7393491;19;20139;-74
2022/05/16 03:43:56;;;;;;;7.68;3.10;;;;;;;;;;7385577;19;20027;-74
2022/05/16 03:46:21;;;;;;;7.90;2.80;;;;;;;;;;7387852;19;20002;-74
2022/05/16 03:48:46;;;;;;;8.55;3.55;;;;;;;;;;7391578;19;20243;-74
2022/05/16 03:51:12;;;;;;;10.97;3.10;;;;;;;;;;7387176;19;20348;-74
2022/05/16 03:53:46;;;;;;;7.40;2.78;;;;;;;;;;7382859;19;20247;-74
2022/05/16 03:56:11;;;;;;;5.90;2.47;;;;;;;;;;7387365;19;20496;-74
2022/05/16 03:58:36;;;;;;;10.30;3.50;;;;;;;;;;7379646;19;20014;-74
2022/05/16 04:01:01;;;;;;;8.23;3.30;;;;;;;;;;7382595;19;20002;-74
2022/05/16 04:03:27;;;;;;;7.80;3.60;;;;;;;;;;7385589;19;20010;-74
2022/05/16 04:05:52;;;;;;;8.32;3.83;;;;;;;;;;7390041;19;20753;-73
2022/05/16 04:08:17;;;;;;;9.85;3.40;;;;;;;;;;7384299;19;20018;-73
2022/05/16 04:10:42;;;;;;;7.27;3.73;;;;;;;;;;7392638;19;20003;-74
2022/05/16 04:13:07;;;;;;;6.77;3.27;;;;;;;;;;7386208;19;20280;-73
2022/05/16 04:15:33;;;;;;;7.87;3.47;;;;;;;;;;7380154;19;20240;-74
2022/05/16 04:17:58;;;;;;;7.85;3.60;;;;;;;;;;7383719;19;20596;-74
2022/05/16 04:20:23;;;;;;;7.57;3.03;;;;;;;;;;7385267;19;20022;-73
2022/05/16 04:22:48;;;;;;;10.35;3.78;;;;;;;;;;7375185;19;20050;-76
2022/05/16 04:25:15;;;;;;;10.13;4.47;;;;;;;;;;7384236;19;20011;-73
2022/05/16 04:27:40;;;;;;;8.38;3.67;;;;;;;;;;7382647;19;20014;-74
2022/05/16 04:30:06;;;;;;;8.07;3.70;;;;;;;;;;7364029;19;20336;-73
2022/05/16 04:32:32;;;;;;;6.63;2.95;;;;;;;;;;7374527;19;20330;-75
2022/05/16 04:34:57;;;;;;;8.83;3.40;;;;;;;;;;7381913;19;20036;-74
2022/05/16 04:37:22;;;;;;;11.37;3.90;;;;;;;;;;7380426;19;20251;-73
2022/05/16 04:39:47;;;;;;;9.18;3.38;;;;;;;;;;7377927;19;20647;-74
2022/05/16 04:44:56;;;;;;;10.07;3.83;;;;;;;;;;7383498;19;20005;-74
2022/05/16 04:47:21;;;;;;;8.07;3.60;;;;;;;;;;7380381;19;20003;-73
2022/05/16 04:49:47;;;;;;;11.00;4.03;;;;;;;;;;7362000;19;20234;-73
2022/05/16 04:52:12;;;;;;;27.85;4.30;;;;;;;;;;7371691;19;20014;-74
2022/05/16 04:54:38;;;;;;;9.50;3.25;;;;;;;;;;7380383;19;20058;-74
2022/05/16 04:57:04;;;;;;;7.95;3.78;;;;;;;;;;7384209;19;20006;-74
2022/05/16 04:59:29;;;;;;;8.55;3.38;;;;;;;;;;7379768;19;20094;-74
2022/05/16 05:01:54;;;;;;;7.30;4.13;;;;;;;;;;7379619;19;20323;-74
2022/05/16 05:04:20;;;;;;;11.80;3.63;;;;;;;;;;7378292;19;20033;-73
2022/05/16 05:06:46;;;;;;;7.63;3.55;;;;;;;;;;7370958;19;20462;-73
2022/05/16 05:09:11;;;;;;;7.82;3.58;;;;;;;;;;7367287;19;20364;-74
2022/05/16 05:14:34;;;;;;;19.95;4.53;;;;;;;;;;7379956;19;20017;-73
2022/05/16 05:17:04;;;;;;;6.88;3.67;;;;;;;;;;7376542;19;20018;-74
2022/05/16 05:19:30;;;;;;;8.77;3.85;;;;;;;;;;7378568;19;20006;-74
2022/05/16 05:21:55;;;;;;;12.25;4.18;;;;;;;;;;7377145;19;20486;-73
2022/05/16 05:24:20;;;;;;;7.10;3.10;;;;;;;;;;7377602;19;20007;-74
2022/05/16 05:26:47;;;;;;;8.60;3.50;;;;;;;;;;7368601;19;20251;-73
2022/05/16 05:29:12;;;;;;;11.57;4.07;;;;;;;;;;7374391;19;20247;-73
2022/05/16 05:31:39;;;;;;;7.97;3.33;;;;;;;;;;7353952;19;20387;-73
2022/05/16 05:34:05;;;;;;;10.23;3.83;;;;;;;;;;7363163;19;20021;-73
2022/05/16 05:36:31;;;;;;;8.68;3.20;;;;;;;;;;7361266;19;20070;-73
2022/05/16 05:38:57;;;;;;;7.63;3.22;;;;;;;;;;7367646;19;20735;-73
2022/05/16 05:41:23;;;;;;;9.18;3.97;;;;;;;;;;7380771;19;20014;-73
2022/05/16 05:43:49;;;;;;;8.43;3.40;;;;;;;;;;7379613;19;20011;-73
2022/05/16 05:46:15;;;;;;;8.50;4.03;;;;;;;;;;7377193;19;20415;-72
2022/05/16 05:48:41;;;;;;;14.30;3.78;;;;;;;;;;7380403;19;20022;-72
2022/05/16 05:51:06;;;;;;;10.37;3.90;;;;;;;;;;7379319;19;19990;-72
2022/05/16 05:53:31;;;;;;;7.32;3.95;;;;;;;;;;7374179;19;20010;-72
2022/05/16 05:55:56;;;;;;;9.02;4.07;;;;;;;;;;7371126;19;20352;-72
2022/05/16 05:58:22;;;;;;;11.00;3.75;;;;;;;;;;7379706;19;20418;-72
2022/05/16 06:00:47;;;;;;;9.40;4.00;;;;;;;;;;7370997;19;20003;-72
2022/05/16 06:03:13;;;;;;;8.70;3.88;;;;;;;;;;7372235;19;20296;-71
2022/05/16 06:05:38;;;;;;;9.02;4.20;;;;;;;;;;7356923;19;20006;-71
2022/05/16 06:08:04;;;;;;;8.85;3.97;;;;;;;;;;7365384;19;20041;-71
2022/05/16 06:10:29;;;;;;;10.25;3.58;;;;;;;;;;7361348;19;20030;-71
2022/05/16 06:12:54;;;;;;;8.82;3.92;;;;;;;;;;7370399;19;20018;-71
2022/05/16 06:15:20;;;;;;;9.90;3.87;;;;;;;;;;7377185;19;19995;-71
2022/05/16 06:17:46;;;;;;;9.63;3.83;;;;;;;;;;7372326;19;20010;-71
2022/05/16 06:20:12;;;;;;;9.93;3.42;;;;;;;;;;7368210;19;19999;-71
2022/05/16 06:22:38;;;;;;;10.45;3.42;;;;;;;;;;7357218;19;20002;-71
2022/05/16 06:27:54;;;;;;;8.18;3.58;;;;;;;;;;7359882;19;20006;-71
2022/05/16 06:30:20;;;;;;;8.93;3.27;;;;;;;;;;7364612;19;20010;-71
2022/05/16 06:32:46;;;;;;;11.98;3.72;;;;;;;;;;7338407;19;20228;-71
2022/05/16 06:35:11;;;;;;;7.68;3.55;;;;;;;;;;7362244;19;20459;-71
2022/05/16 06:37:36;;;;;;;10.48;3.75;;;;;;;;;;7362825;19;20006;-71
2022/05/16 06:40:02;;;;;;;9.00;3.53;;;;;;;;;;7357567;19;20006;-71
2022/05/16 06:42:27;;;;;;;9.18;4.00;;;;;;;;;;7373313;19;20543;-71
2022/05/16 06:44:53;;;;;;;7.23;3.23;;;;;;;;;;7373381;19;20022;-71
2022/05/16 06:47:18;;;;;;;8.68;3.58;;;;;;;;;;7378077;19;20031;-71
2022/05/16 06:49:43;;;;;;;8.60;3.13;;;;;;;;;;7369267;19;20003;-71
2022/05/16 06:52:08;;;;;;;8.60;3.57;;;;;;;;;;7370008;19;20373;-71
2022/05/16 06:54:34;;;;;;;10.27;4.03;;;;;;;;;;7372178;19;19998;-71
2022/05/16 06:56:59;;;;;;;8.27;3.23;;;;;;;;;;7377596;19;20017;-71
2022/05/16 06:59:24;;;;;;;10.67;3.90;;;;;;;;;;7381394;19;20591;-71
2022/05/16 07:01:49;;;;;;;12.00;3.30;;;;;;;;;;7375102;19;20255;-70
2022/05/16 07:04:14;;;;;;;8.88;4.35;;;;;;;;;;7377876;19;20007;-71
2022/05/16 07:06:40;;;;;;;13.93;8.20;;;;;;;;;;7375356;19;20012;-71
2022/05/16 07:09:05;;;;;;;11.98;4.28;;;;;;;;;;7371904;19;20828;-71
2022/05/16 07:11:32;;;;;;;7.23;3.47;;;;;;;;;;7377779;19;20018;-71
2022/05/16 07:13:57;;;;;;;8.75;3.30;;;;;;;;;;7374158;19;20011;-71
2022/05/16 07:16:23;;;;;;;12.07;3.65;;;;;;;;;;7376780;19;20388;-71
2022/05/16 07:18:48;;;;;;;11.53;3.03;;;;;;;;;;7377433;19;20034;-71
2022/05/16 07:21:13;;;;;;;11.98;3.20;;;;;;;;;;7380646;19;20390;-71
2022/05/16 07:23:38;;;;;;;8.93;4.10;;;;;;;;;;7370984;19;20018;-71
2022/05/16 07:28:47;;;;;;;9.65;5.93;;;;;;;;;;7378679;19;20005;-72
2022/05/16 07:31:12;;;;;;;11.60;5.30;;;;;;;;;;7374794;19;20078;-71
2022/05/16 07:33:38;;;;;;;10.10;3.40;;;;;;;;;;7376431;19;20106;-71
2022/05/16 07:36:03;;;;;;;8.93;4.70;;;;;;;;;;7379882;19;20302;-71
2022/05/16 07:38:28;;;;;;;8.02;3.30;;;;;;;;;;7372452;19;20256;-71
2022/05/16 07:40:54;;;;;;;9.57;4.00;;;;;;;;;;7372951;19;20478;-71
2022/05/16 07:43:20;;;;;;;7.25;3.97;;;;;;;;;;7381491;19;20005;-71
2022/05/16 07:45:45;;;;;;;11.48;4.72;;;;;;;;;;7378415;19;20018;-71
2022/05/16 07:48:12;;;;;;;11.63;5.22;;;;;;;;;;7373933;19;20010;-71
2022/05/16 07:50:38;;;;;;;11.45;6.45;;;;;;;;;;7378086;19;20362;-72
2022/05/16 07:53:05;;;;;;;13.10;5.50;;;;;;;;;;7372213;19;20566;-71
2022/05/16 07:55:30;;;;;;;8.18;3.92;;;;;;;;;;7379190;19;20001;-71
2022/05/16 07:57:55;;;;;;;8.25;4.57;;;;;;;;;;7379612;19;20360;-71
2022/05/16 08:00:22;;;;;;;10.33;4.50;;;;;;;;;;7376403;19;20034;-71
2022/05/16 08:02:47;;;;;;;10.98;4.93;;;;;;;;;;7375874;19;20258;-71
2022/05/16 08:05:14;;;;;;;12.50;3.97;;;;;;;;;;7380512;19;20586;-71
2022/05/16 08:10:29;;;;;;;;;;;;;;;;;;7386654;19;20005;-72
2022/05/16 08:12:55;;;;;;;8.13;4.32;;;;;;;;;;7378788;19;20304;-72
2022/05/16 08:15:20;;;;;;;10.30;4.38;;;;;;;;;;7373458;19;20009;-71
2022/05/16 08:17:45;;;;;;;8.73;3.63;;;;;;;;;;7373734;19;20034;-72
2022/05/16 08:20:10;;;;;;;8.07;3.80;;;;;;;;;;7382942;19;20231;-72
2022/05/16 08:22:36;;;;;;;11.25;5.85;;;;;;;;;;7374481;19;20866;-73
2022/05/16 08:25:01;;;;;;;8.98;3.60;;;;;;;;;;7376430;19;20355;-72
2022/05/16 08:27:26;;;;;;;6.28;2.92;;;;;;;;;;7377239;19;20015;-72
2022/05/16 08:29:52;;;;;;;8.02;3.72;;;;;;;;;;7379300;19;20029;-73
2022/05/16 08:32:20;;;;;;;9.35;3.88;;;;;;;;;;7384759;19;20018;-72
2022/05/16 08:34:45;;;;;;;7.60;2.80;;;;;;;;;;7378835;19;20017;-72
2022/05/16 08:40:03;;;;;;;;;;;;;;;;;;7372958;19;20366;-72
2022/05/16 08:42:47;;;;;;;9.35;2.53;;;;;;;;;;7379374;19;20247;-72
2022/05/16 08:45:28;;;;;;;8.98;3.22;;;;;;;;;;7385332;19;20108;-72
2022/05/16 08:47:54;;;;;;;9.18;3.50;;;;;;;;;;7382015;19;20014;-72
2022/05/16 08:50:34;;;;;;;10.13;3.40;;;;;;;;;;7378563;19;20005;-72
2022/05/16 08:53:02;;;;;;;9.45;3.72;;;;;;;;;;7378613;19;20015;-73
2022/05/16 08:55:48;;;;;;;8.13;3.58;;;;;;;;;;7382839;19;20011;-72
2022/05/16 08:58:49;;;;;;;9.75;4.28;;;;;;;;;;7385094;19;20021;-72
2022/05/16 09:01:17;;;;;;;9.80;3.25;;;;;;;;;;7383273;19;20081;-72
2022/05/16 09:03:44;;;;;;;7.78;3.10;;;;;;;;;;7386195;19;20014;-72
2022/05/16 09:06:31;;;;;;;9.98;4.07;;;;;;;;;;7381081;19;20030;-72
2022/05/16 09:08:56;;;;;;;6.55;3.38;;;;;;;;;;7381779;19;20482;-72
2022/05/16 09:11:29;;;;;;;12.40;4.37;;;;;;;;;;7385471;19;20018;-73
2022/05/16 09:13:56;;;;;;;9.05;4.85;;;;;;;;;;7384221;19;20018;-73
2022/05/16 09:16:27;;;;;;;11.20;3.50;;;;;;;;;;7382084;19;20003;-73
2022/05/16 09:19:10;;;;;;;9.73;4.03;;;;;;;;;;7381701;19;20490;-73
2022/05/16 09:21:36;;;;;;;8.97;3.93;;;;;;;;;;7385503;19;20071;-72
2022/05/16 09:24:10;;;;;;;10.02;3.08;;;;;;;;;;7381733;19;20467;-73
2022/05/16 09:26:56;;;;;;;8.57;3.38;;;;;;;;;;7384392;19;20368;-72
2022/05/16 09:29:31;;;;;;;8.50;3.50;;;;;;;;;;7384116;19;20025;-74
2022/05/16 09:32:00;;;;;;;10.07;3.30;;;;;;;;;;7379484;19;20036;-73
2022/05/16 09:34:25;;;;;;;10.43;3.38;;;;;;;;;;7382871;19;20007;-73
2022/05/16 09:36:50;;;;;;;16.48;4.22;;;;;;;;;;7381953;19;20033;-73
2022/05/16 09:39:20;;;;;;;14.97;4.30;;;;;;;;;;7379134;19;20003;-74
2022/05/16 09:41:49;;;;;;;12.55;3.53;;;;;;;;;;7384477;19;20247;-74
2022/05/16 09:44:32;;;;;;;9.52;3.33;;;;;;;;;;7385148;19;20002;-73
2022/05/16 09:47:16;;;;;;;12.20;3.60;;;;;;;;;;7382481;19;20019;-73
2022/05/16 09:49:41;;;;;;;;;;;;;;;;;;7384050;19;20019;-73
2022/05/16 09:52:13;;;;;;;14.52;4.32;;;;;;;;;;7378596;19;19923;-73
2022/05/16 09:54:39;;;;;;;10.25;3.15;;;;;;;;;;7383962;19;20019;-73
2022/05/16 09:57:04;;;;;;;9.80;4.00;;;;;;;;;;7382314;19;20006;-72
2022/05/16 09:59:42;;;;;;;11.73;3.42;;;;;;;;;;7384235;19;20023;-73
2022/05/16 10:02:13;;;;;;;13.88;4.60;;;;;;;;;;7381401;19;20019;-73
2022/05/16 10:04:40;;;;;;;18.02;4.05;;;;;;;;;;7383726;19;20051;-73
2022/05/16 10:07:06;;;;;;;7.45;2.90;;;;;;;;;;7381120;19;20379;-73
2022/05/16 10:09:45;;;;;;;14.43;3.92;;;;;;;;;;7381821;19;20085;-73
2022/05/16 10:12:12;;;;;;;10.18;4.18;;;;;;;;;;7386649;19;20010;-73
2022/05/16 10:14:39;;;;;;;13.75;3.80;;;;;;;;;;7382679;19;20546;-73
2022/05/16 10:17:07;;;;;;;13.75;4.72;;;;;;;;;;7382886;19;20038;-74
2022/05/16 10:19:33;;;;;;;17.73;4.72;;;;;;;;;;7382716;19;20002;-75
2022/05/16 10:22:01;;;;;;;11.05;4.13;;;;;;;;;;7379898;19;20018;-73
2022/05/16 10:24:31;;;;;;;10.02;3.88;;;;;;;;;;7380108;19;20034;-74
2022/05/16 10:26:56;;;;;;;14.20;4.80;;;;;;;;;;7380318;19;20018;-73
2022/05/16 10:29:36;;;;;;;15.05;4.88;;;;;;;;;;7382793;19;20003;-73
2022/05/16 10:34:50;;;;;;;9.60;4.00;;;;;;;;;;7382031;19;20030;-73
2022/05/16 10:37:16;;;;;;;15.10;4.50;;;;;;;;;;7379446;19;20344;-74
2022/05/16 10:39:43;;;;;;;17.23;5.13;;;;;;;;;;7377145;19;20014;-74
2022/05/16 10:42:24;;;;;;;11.82;5.13;;;;;;;;;;7382628;19;20119;-73
2022/05/16 10:44:55;;;;;;;11.40;4.60;;;;;;;;;;7382229;19;20010;-73
2022/05/16 10:47:25;;;;;;;15.18;4.65;;;;;;;;;;7377933;19;20010;-73
2022/05/16 10:49:59;;;;;;;12.55;5.20;;;;;;;;;;7383542;19;20002;-74
2022/05/16 10:52:24;;;;;;;16.10;5.05;;;;;;;;;;7378642;19;20006;-73
2022/05/16 10:54:50;;;;;;;11.75;4.63;;;;;;;;;;7382196;19;20032;-74
2022/05/16 10:57:21;;;;;;;10.47;4.83;;;;;;;;;;7377178;19;20054;-73
2022/05/16 10:59:46;;;;;;;13.27;4.80;;;;;;;;;;7357208;19;20010;-73
2022/05/16 11:02:25;;;;;;;14.25;5.00;;;;;;;;;;7368421;19;20038;-74
2022/05/16 11:04:57;;;;;;;10.75;5.13;;;;;;;;;;7370019;19;20018;-74
2022/05/16 11:07:41;;;;;;;13.10;5.03;;;;;;;;;;7364007;19;20629;-73
2022/05/16 11:10:25;;;;;;;12.82;5.57;;;;;;;;;;7378464;19;20031;-74
2022/05/16 11:13:01;;;;;;;12.98;5.88;;;;;;;;;;7381111;19;20275;-75
2022/05/16 11:15:26;;;;;;;14.00;5.45;;;;;;;;;;7372680;19;20470;-74
2022/05/16 11:18:06;;;;;;;15.23;5.27;;;;;;;;;;7379982;19;20021;-74
2022/05/16 11:20:35;;;;;;;14.40;5.22;;;;;;;;;;7372639;19;20584;-73
2022/05/16 11:23:23;;;;;;;14.00;4.90;;;;;;;;;;7358931;19;20395;-73
2022/05/16 11:25:56;;;;;;;10.48;5.32;;;;;;;;;;7345218;19;20002;-72
2022/05/16 11:28:32;;;;;;;13.65;5.40;;;;;;;;;;7373284;19;20011;-77
2022/05/16 11:31:01;;;;;;;14.68;5.57;;;;;;;;;;7375290;19;20349;-73
2022/05/16 11:33:32;;;;;;;10.15;4.63;;;;;;;;;;7380267;19;19994;-73
2022/05/16 11:35:59;;;;;;;15.02;5.22;;;;;;;;;;7383460;19;20073;-73
2022/05/16 11:38:50;;;;;;;13.93;4.75;;;;;;;;;;7374533;19;20010;-73
2022/05/16 11:41:23;;;;;;;14.82;5.05;;;;;;;;;;7385667;19;20467;-73
2022/05/16 11:43:49;;;;;;;11.68;5.30;;;;;;;;;;7386761;19;20014;-72
2022/05/16 11:46:17;;;;;;;13.82;4.80;;;;;;;;;;7386263;19;20538;-74
2022/05/16 11:49:06;;;;;;;13.88;5.35;;;;;;;;;;7386771;19;20313;-74
2022/05/16 11:51:43;;;;;;;17.67;5.40;;;;;;;;;;7386057;19;20007;-72
2022/05/16 11:54:09;;;;;;;14.60;4.60;;;;;;;;;;7383262;19;20022;-73
2022/05/16 12:02:27;;;;;;;9.88;5.32;;;;;;;;;;7388098;19;20013;-74
2022/05/16 12:05:04;;;;;;;17.42;5.40;;;;;;;;;;7385644;19;20011;-73
2022/05/16 12:07:35;;;;;;;13.73;5.18;;;;;;;;;;7382002;19;20010;-72
2022/05/16 12:10:09;;;;;;;10.65;4.30;;;;;;;;;;7384899;19;20096;-73
2022/05/16 12:12:37;;;;;;;10.02;4.72;;;;;;;;;;7380553;19;20031;-74
2022/05/16 12:15:21;;;;;;;12.93;4.78;;;;;;;;;;7388377;19;20438;-74
2022/05/16 12:17:53;;;;;;;18.60;4.88;;;;;;;;;;7380158;19;20019;-73
2022/05/16 12:20:36;;;;;;;12.83;4.53;;;;;;;;;;7387421;19;20788;-73
2022/05/16 12:23:02;;;;;;;10.90;4.40;;;;;;;;;;7376374;19;20031;-74
2022/05/16 12:25:28;;;;;;;13.13;5.47;;;;;;;;;;7381158;19;20474;-73
2022/05/16 12:28:08;;;;;;;10.18;4.82;;;;;;;;;;7387681;19;20019;-73
2022/05/16 12:30:36;;;;;;;14.07;4.93;;;;;;;;;;7386600;19;20270;-73
2022/05/16 12:33:02;;;;;;;11.38;4.93;;;;;;;;;;7382119;19;20015;-74
2022/05/16 12:35:27;;;;;;;15.45;4.80;;;;;;;;;;7385171;19;20046;-73
2022/05/16 12:37:56;;;;;;;10.73;4.47;;;;;;;;;;7375919;19;20363;-73
2022/05/16 12:40:39;;;;;;;12.18;5.35;;;;;;;;;;7385350;19;20011;-73
2022/05/16 12:43:14;;;;;;;11.48;5.07;;;;;;;;;;7388409;19;20014;-73
2022/05/16 12:45:48;;;;;;;10.93;4.80;;;;;;;;;;7388032;19;20010;-74
2022/05/16 12:48:23;;;;;;;15.05;4.78;;;;;;;;;;7381512;19;20537;-74
2022/05/16 12:51:07;;;;;;;13.90;5.30;;;;;;;;;;7381984;19;19998;-73
2022/05/16 12:53:35;;;;;;;15.15;5.72;;;;;;;;;;7379208;19;20021;-73
2022/05/16 12:56:19;;;;;;;16.35;5.63;;;;;;;;;;7387069;19;20027;-73
2022/05/16 12:59:05;;;;;;;10.60;5.10;;;;;;;;;;7385279;19;20002;-73
2022/05/16 13:01:31;;;;;;;12.48;5.53;;;;;;;;;;7382203;19;20034;-73
2022/05/16 13:04:05;;;;;;;11.70;5.30;;;;;;;;;;7385750;19;19994;-74
2022/05/16 13:06:31;;;;;;;12.73;5.75;;;;;;;;;;7381598;19;20028;-73
2022/05/16 13:09:16;;;;;;;12.18;5.10;;;;;;;;;;7349977;19;20126;-72
2022/05/16 13:11:49;;;;;;;12.38;5.35;;;;;;;;;;7373566;19;20443;-73
2022/05/16 13:14:29;;;;;;;13.30;4.80;;;;;;;;;;7377816;19;20022;-73
2022/05/16 13:16:56;;;;;;;12.38;5.85;;;;;;;;;;7380656;19;20019;-74
2022/05/16 13:19:28;;;;;;;14.98;5.80;;;;;;;;;;7383601;19;20007;-73
2022/05/16 13:21:55;;;;;;;15.68;5.50;;;;;;;;;;7381592;19;20081;-74
2022/05/16 13:24:21;;;;;;;11.20;5.53;;;;;;;;;;7374421;19;20018;-73
2022/05/16 13:29:35;;;;;;;14.90;5.55;;;;;;;;;;7366745;19;20019;-72
2022/05/16 13:32:10;;;;;;;10.80;5.20;;;;;;;;;;7372736;19;20010;-73
2022/05/16 13:34:42;;;;;;;11.50;5.22;;;;;;;;;;7371232;19;20002;-73
2022/05/16 13:37:07;;;;;;;8.93;4.57;;;;;;;;;;7362441;19;20014;-74
2022/05/16 13:39:38;;;;;;;11.05;5.15;;;;;;;;;;7383018;19;20009;-72
2022/05/16 13:42:04;;;;;;;12.57;5.38;;;;;;;;;;7378853;19;20027;-73
2022/05/16 13:44:34;;;;;;;11.45;4.72;;;;;;;;;;7368257;19;19995;-73
2022/05/16 13:47:00;;;;;;;12.27;4.95;;;;;;;;;;7377568;19;20006;-73
2022/05/16 13:49:26;;;;;;;12.23;4.60;;;;;;;;;;7381062;19;19999;-73
2022/05/16 13:51:52;;;;;;;10.60;4.07;;;;;;;;;;7380054;19;20020;-72
2022/05/16 13:54:22;;;;;;;9.93;4.30;;;;;;;;;;7379628;19;20464;-73
2022/05/16 13:56:52;;;;;;;10.80;4.13;;;;;;;;;;7376610;19;20110;-73
2022/05/16 13:59:24;;;;;;;15.20;4.38;;;;;;;;;;7384081;19;20016;-75
2022/05/16 14:02:04;;;;;;;12.00;5.03;;;;;;;;;;7380913;19;20052;-73
2022/05/16 14:04:31;;;;;;;9.65;4.63;;;;;;;;;;7381922;19;20040;-74
2022/05/16 14:07:00;;;;;;;10.70;4.15;;;;;;;;;;7370634;19;20471;-73
2022/05/16 14:09:32;;;;;;;12.23;4.38;;;;;;;;;;7381369;19;20002;-73
2022/05/16 14:11:58;;;;;;;8.85;4.88;;;;;;;;;;7383431;19;20020;-74
2022/05/16 14:14:25;;;;;;;11.40;4.43;;;;;;;;;;7383722;19;20357;-74
2022/05/16 14:16:52;;;;;;;7.95;4.03;;;;;;;;;;7379309;19;20027;-74
2022/05/16 14:19:30;;;;;;;11.98;4.65;;;;;;;;;;7378306;19;19999;-74
2022/05/16 14:22:08;;;;;;;9.93;4.63;;;;;;;;;;7379396;19;20465;-74
2022/05/16 14:24:44;;;;;;;8.13;4.28;;;;;;;;;;7377663;19;20490;-74
2022/05/16 14:27:33;;;;;;;13.30;4.25;;;;;;;;;;7379170;19;20038;-73
2022/05/16 14:30:00;;;;;;;9.85;4.43;;;;;;;;;;7379954;19;20019;-73
2022/05/16 14:32:25;;;;;;;9.32;4.43;;;;;;;;;;7377902;19;20018;-73
2022/05/16 14:34:58;;;;;;;15.40;5.17;;;;;;;;;;7383434;19;20010;-74
2022/05/16 14:37:27;;;;;;;9.40;3.75;;;;;;;;;;7374502;19;20034;-74
2022/05/16 14:39:53;;;;;;;10.82;4.25;;;;;;;;;;7380299;19;20088;-73
2022/05/16 14:42:23;;;;;;;7.38;3.50;;;;;;;;;;7384816;19;20003;-74
2022/05/16 14:45:01;;;;;;;7.40;3.80;;;;;;;;;;7380791;19;20027;-74
2022/05/16 14:47:32;;;;;;;9.82;4.15;;;;;;;;;;7378607;19;20018;-74
2022/05/16 14:49:57;;;;;;;10.68;3.78;;;;;;;;;;7379036;19;20102;-73
2022/05/16 14:52:26;;;;;;;8.75;4.40;;;;;;;;;;7374819;19;20454;-74
2022/05/16 14:55:11;;;;;;;10.60;4.10;;;;;;;;;;7378554;19;20025;-73
2022/05/16 14:57:39;;;;;;;13.85;3.72;;;;;;;;;;7375554;19;20013;-73
2022/05/16 15:00:04;;;;;;;6.78;3.38;;;;;;;;;;7379420;19;20051;-74
2022/05/16 15:05:13;;;;;;;8.30;4.00;;;;;;;;;;7377814;19;20849;-73
2022/05/16 15:07:40;;;;;;;10.63;3.87;;;;;;;;;;7375919;19;20014;-73
2022/05/16 15:10:07;;;;;;;8.45;3.80;;;;;;;;;;7378706;19;20014;-73
2022/05/16 15:12:34;;;;;;;8.15;4.18;;;;;;;;;;7375963;19;20016;-73
2022/05/16 15:14:59;;;;;;;12.57;3.78;;;;;;;;;;7375086;19;20015;-73
2022/05/16 15:17:24;;;;;;;7.50;3.43;;;;;;;;;;7378238;19;20034;-74
2022/05/16 15:19:50;;;;;;;7.30;4.30;;;;;;;;;;7382284;19;20259;-73
2022/05/16 15:22:17;;;;;;;9.07;3.77;;;;;;;;;;7379349;19;20355;-74
2022/05/16 15:24:54;;;;;;;12.98;4.07;;;;;;;;;;7381703;19;20018;-73